Blowing Sand Mountains, Nevada Weather observations

Data are for observation ending at time listed.
 Day   Time    Ave.   Ave.  Ave.  Vector   Max.   Stn.    Total    Solar   Ave.  
  of    of     Air    Rel.  Wind   Wind    Wind   Baro.  Precip.   Rad.    Soil  
Year   Day     Temp.  Hum.  Speed  Dir.    Gust   Pres.                    Temp. 
2016   (PST)    F      %     mph   deg.    mph     mb.     in.     W/m2     F   
------------------------------------------------------------------------------
 148    4:30   44.7    66    4.3   148      5.8    880.8     0.00       2     65.8
 148    4:40   44.8    67    3.6   134      5.3    880.9     0.00       6     65.7
 148    4:50   44.5    67    2.7   124      5.8    880.9     0.00      13     65.6
 148    5:00   44.2    68    0.0     0      0.0    880.9     0.00      26     65.6
 148    5:10   44.7    68    0.0     0      0.0    881.0     0.00      43     65.5
 148    5:20   45.9    67    0.0     0      0.0    881.1     0.00      78     65.4
 148    5:30   47.2    64    0.0     0      0.0    881.2     0.00     108     65.4
 148    5:40   48.2    62    0.0     0      0.0    881.3     0.00     134     65.3
 148    5:50   48.1    63    0.0     0      0.0    881.2     0.00     161     65.2
 148    6:00   49.4    61    0.5   307      3.8    881.3     0.00     191     65.2
 148    6:10   51.6    58    0.0     0      0.0    881.4     0.00     222     65.1
 148    6:20   54.0    55    0.3   173      1.8    881.4     0.00     253     65.0
 148    6:30   56.6    50    0.0     0      0.0    881.4     0.00     284     65.0
 148    6:40   60.4    43    0.0     0      0.0    881.3     0.00     317     64.9
 148    6:50   60.2    42    0.0     0      0.0    881.3     0.00     351     64.8
 148    7:00   63.6    37    0.1   158      1.5    881.4     0.00     385     64.8
 148    7:10   64.1    34    0.0     0      0.0    881.4     0.00     418     64.7
 148    7:20   65.2    32    0.0     0      0.0    881.4     0.00     451     64.7
 148    7:30   65.6    30    0.4   306      4.1    881.4     0.00     481     64.6
 148    7:40   65.1    28    2.5   346      7.7    881.3     0.00     513     64.6
 148    7:50   64.8    27    3.3   325      9.1    881.3     0.00     544     64.6
 148    8:00   65.5    24    5.7   337     11.5    881.2     0.00     575     64.5
 148    8:10   66.2    21    5.4   333     10.1    881.2     0.00     605     64.5
 148    8:20   66.3    21    6.6   330     11.2    881.2     0.00     635     64.5
 148    8:30   66.6    20    4.7   316     12.9    881.2     0.00     662     64.4
 148    8:40   66.9    19    5.9   346     11.3    881.1     0.00     690     64.3
 148    8:50   67.3    20    4.2   341     11.0    881.1     0.00     717     64.3
 148    9:00   67.6    20    5.8   340     10.3    881.0     0.00     743     64.3
 148    9:10   67.5    20    5.7    10     10.7    880.9     0.00     766     64.2
 148    9:20   67.8    21    4.3    24      9.1    880.8     0.00     787     64.2
 148    9:30   68.2    20    6.8     7     11.0    880.7     0.00     809     64.1
 148    9:40   68.6    20    3.5   352      9.8    880.7     0.00     829     64.1
 148    9:50   68.9    20    3.9   331      8.6    880.6     0.00     850     64.1
 148   10:00   69.2    20    4.3    21     10.7    880.6     0.00     867     64.0
 148   10:10   69.6    19    1.9   306      8.4    880.5     0.00     887     64.0
 148   10:20   71.3    19    4.6   136     11.2    880.3     0.00     902     63.9
 148   10:30   71.6    18    2.1   232     10.4    880.2     0.00     914     63.9
 148   10:40   70.9    19    6.8   323     15.4    880.1     0.00     928     63.9
 148   10:50   70.6    19    3.9   355      8.2    880.1     0.00     937     63.9
 148   11:00   71.6    18    4.0   247      9.6    880.0     0.00     945     63.9
 148   11:10   71.8    18    2.3   243      8.3    879.9     0.00     957     63.9
 148   11:20   72.3    18    4.3   276     11.3    879.8     0.00     965     63.9
 148   11:30   71.4    19    2.5   323      9.9    879.7     0.00     967     63.9
 148   11:40   72.4    18    6.0   330     13.8    879.5     0.00     973     63.9
 148   11:50   72.0    18    5.4    33     10.7    879.4     0.00     971     63.9
 148   12:00   72.6    18    6.9   345     14.0    879.3     0.00     972     64.0
 148   12:10   73.3    17    8.2   305     13.4    879.1     0.00     973     64.0
 148   12:20   73.4    17    1.9   266      9.9    878.9     0.00     969     64.0
 148   12:30   75.0    16    2.7   300     10.8    878.7     0.00     967     64.0
 148   12:40   74.8    15    3.3   328     10.9    878.6     0.00     961     64.0
 148   12:50   74.9    15    3.1    58      8.6    878.4     0.00     954     64.1
 148   13:00   74.9    15    1.3   348      6.9    878.2     0.00     946     64.1
 148   13:10   75.3    15    8.0   290     15.3    878.0     0.00     936     64.2
 148   13:20   75.8    15    2.6   323      7.4    877.9     0.00     924     64.3
 148   13:30   76.2    14    6.1   305     15.9    877.8     0.00     912     64.3
 148   13:40   75.6    15    6.7   296     14.5    877.7     0.00     900     64.4
 148   13:50   76.8    14    3.7   291      9.6    877.5     0.00     892     64.4
 148   14:00   77.9    14    3.8   279      9.1    877.4     0.00     884     64.5
 148   14:10   77.3    14    8.0   288     18.0    877.2     0.00     882     64.5
 148   14:20   76.8    15    6.1   318     16.4    877.2     0.00     880     64.6
 148   14:30   78.2    14    6.7   263     17.8    876.9     0.00     878     64.7
 148   14:40   78.6    14   11.3   336     19.4    876.8     0.00     839     64.7
 148   14:50   77.7    14    9.8     7     18.0    876.8     0.00     800     64.8
 148   15:00   77.4    15    7.0     8     15.7    876.7     0.00     620     64.9
 148   15:10   76.5    15    4.0    59     12.2    876.6     0.00     343     65.0
 148   15:20   76.5    15    4.7   305      9.3    876.4     0.00     426     65.1
 148   15:30   76.7    15    2.8   226      9.9    876.4     0.00     562     65.2
 148   15:40   77.9    14    3.5   343     11.1    876.3     0.00     666     65.2
 148   15:50   78.0    14    4.9   282     10.6    876.2     0.00     619     65.3
 148   16:00   76.9    14    4.6   301      9.3    876.1     0.00     287     65.4
 148   16:10   77.9    14    3.0   229      8.0    876.0     0.00     566     65.5
 148   16:20   79.3    14    3.5   198      8.1    875.9     0.00     323     65.6
 148   16:30   77.1    14    0.2   186      4.0    875.8     0.00     171     65.7
 148   16:40   77.0    14    3.6    10     11.2    875.7     0.00     365     65.8
 148   16:50   77.3    14    8.1     2     14.2    875.6     0.00     171     65.9
 148   17:00   75.9    14    8.5    16     12.3    875.6     0.00      80     65.9
 148   17:10   75.8    14    8.6     8     12.5    875.7     0.00     112     66.0
 148   17:20   75.7    15    9.2   359     13.2    875.7     0.00      69     66.1
 148   17:30   75.2    15    8.8   351     14.2    875.8     0.00      54     66.2
 148   17:40   75.3    15   10.4   354     14.6    875.9     0.00     103     66.2
 148   17:50   75.5    16   13.6   334     24.5    876.0     0.00     178     66.3
 148   18:00   74.4    17   14.6   330     22.2    876.2     0.00     108     66.4
 148   18:10   73.9    18   13.3   353     22.4    876.2     0.00     109     66.5
 148   18:20   73.3    18   11.5   356     17.8    876.3     0.00      64     66.6
 148   18:30   73.1    18    7.4   350     12.1    876.3     0.00      47     66.7
 148   18:40   73.2    18    6.3   346      9.3    876.4     0.00      40     66.8
 148   18:50   73.0    18    6.0   335      8.4    876.5     0.00      21     66.8
 148   19:00   72.5    19    4.5   324      6.4    876.5     0.00      10     66.9
 148   19:10   72.5    19    4.9   317      6.4    876.6     0.00       5     67.0
 148   19:20   71.9    20    4.1   322      6.1    876.7     0.00       2     67.0
 148   19:30   71.4    20    5.9   352      9.8    876.8     0.00       1     67.0
 148   19:40   71.3    20    7.2   358     12.7    876.8     0.00       0     67.1
 148   19:50   71.3    19   10.4   358     14.2    876.9     0.00       0     67.2
 148   20:00   71.2    20    9.3     5     13.4    877.0     0.00       0     67.2
 148   20:10   70.9    20    9.9   353     14.5    877.2     0.00       0     67.3
 148   20:20   70.9    19   10.9   351     17.5    877.4     0.00       0     67.3
 148   20:30   70.3    17   11.5   359     18.3    877.6     0.00       0     67.3
 148   20:40   69.5    18   11.2     2     17.0    877.8     0.00       0     67.4
 148   20:50   68.7    17   12.6     7     19.6    877.9     0.00       0     67.4
 148   21:00   68.1    17   12.7   357     18.5    878.1     0.00       0     67.4
 148   21:10   67.5    19   10.1   343     15.7    878.3     0.00       0     67.4
 148   21:20   66.9    21    9.7   341     16.4    878.3     0.00       0     67.5
 148   21:30   67.0    20    9.5   343     13.7    878.4     0.00       0     67.5
 148   21:40   66.9    20    8.6   338     12.9    878.4     0.00       0     67.5
 148   21:50   67.2    18    9.9   352     15.1    878.3     0.00       0     67.5
 148   22:00   67.2    18    8.8   346     14.0    878.4     0.00       0     67.5
 148   22:10   67.0    17    9.5   347     13.8    878.5     0.00       0     67.5
 148   22:20   66.6    17    7.2   334     13.4    878.6     0.00       0     67.5
 148   22:30   65.7    18    5.0   320      8.6    878.6     0.00       0     67.5
 148   22:40   65.0    19    6.2   315     16.3    878.7     0.00       0     67.6
 148   22:50   65.6    18   10.6   343     18.6    878.9     0.00       0     67.6
 148   23:00   64.5    19    8.5   342     13.2    878.9     0.00       0     67.6
 148   23:10   63.7    21    5.9   338      9.9    879.1     0.00       0     67.6
 148   23:20   63.0    22    1.3   314      5.7    879.3     0.00       0     67.5
 148   23:30   62.4    22    2.5   338      6.2    879.3     0.00       0     67.5
 148   23:40   61.7    23    2.9   332      6.1    879.2     0.00       0     67.5
 148   23:50   60.8    24    4.7   328      6.9    879.1     0.00       0     67.5
 149    0:00   60.3    25    5.3   329      7.5    879.1     0.00       0     67.5
 149    0:10   59.8    25    4.1   300      5.8    879.2     0.00       0     67.5
 149    0:20   58.6    26    1.2   292      4.3    879.3     0.00       0     67.5
 149    0:30   57.2    28    3.2   185      5.4    879.2     0.00       0     67.5
 149    0:40   57.4    27    2.1   190      4.3    879.2     0.00       0     67.4
 149    0:50   56.0    29    0.2   263      2.3    879.2     0.00       0     67.4
 149    1:00   55.9    29    1.8   208      5.0    879.3     0.00       0     67.4
 149    1:10   56.4    28    2.0   237      4.1    879.3     0.00       0     67.4
 149    1:20   57.8    27    1.2   292      5.3    879.3     0.00       0     67.4
 149    1:30   57.4    27    4.3   344      7.2    879.3     0.00       0     67.4
 149    1:40   56.4    28    5.9   342      8.1    879.3     0.00       0     67.3
 149    1:50   55.3    30    3.6   340      6.0    879.3     0.00       0     67.3
 149    2:00   54.2    31    0.8   336      3.3    879.2     0.00       0     67.2
 149    2:10   52.9    32    0.5   104      4.9    879.3     0.00       0     67.2
 149    2:20   53.4    32    1.1   280      7.2    879.3     0.00       0     67.2
 149    2:30   55.7    28    5.2   316      7.7    879.2     0.00       0     67.2
 149    2:40   54.9    29    2.1    12      6.4    879.3     0.00       0     67.1
 149    2:50   55.3    28    2.8     3      7.5    879.2     0.00       0     67.0
 149    3:00   54.8    28    0.3   120      3.4    879.2     0.00       0     67.0
 149    3:10   52.9    30    3.9   128      5.6    879.3     0.00       0     67.0
 149    3:20   51.3    32    1.7   131      4.6    879.3     0.00       0     67.0
 149    3:30   47.9    39    1.6   166      4.7    879.4     0.00       0     67.0
 149    3:40   45.5    42    0.0     0      0.0    879.4     0.00       0     66.9
 149    3:50   45.0    44    0.0     0      0.0    879.6     0.00       0     66.9
 149    4:00   44.5    45    0.5   141      4.2    879.7     0.00       0     66.8
 149    4:10   43.5    46    0.0     0      0.0    879.8     0.00       0     66.8
 149    4:20   43.4    48    0.0     0      0.0    879.9     0.00       1     66.7

Return to Blowing Sand Mountains graphs page.


Western Regional Climate Center,wrcc@dri.edu